sensor_id;sensor_type;location;lat;lon;timestamp;P1;durP1;ratioP1;P2;durP2;ratioP2
52414;SDS011;38340;52.964;6.086;2023-08-08T00:00:37;10.98;;;3.72;;
52414;SDS011;38340;52.964;6.086;2023-08-08T00:03:03;6.40;;;3.17;;
52414;SDS011;38340;52.964;6.086;2023-08-08T00:05:29;5.15;;;3.22;;
52414;SDS011;38340;52.964;6.086;2023-08-08T00:07:55;8.95;;;3.20;;
52414;SDS011;38340;52.964;6.086;2023-08-08T00:10:20;5.32;;;2.90;;
52414;SDS011;38340;52.964;6.086;2023-08-08T00:12:46;5.63;;;3.45;;
52414;SDS011;38340;52.964;6.086;2023-08-08T00:15:12;5.68;;;2.80;;
52414;SDS011;38340;52.964;6.086;2023-08-08T00:17:37;5.90;;;3.17;;
52414;SDS011;38340;52.964;6.086;2023-08-08T00:20:03;4.15;;;3.00;;
52414;SDS011;38340;52.964;6.086;2023-08-08T00:22:29;5.55;;;3.30;;
52414;SDS011;38340;52.964;6.086;2023-08-08T00:24:55;5.63;;;3.05;;
52414;SDS011;38340;52.964;6.086;2023-08-08T00:27:21;5.00;;;2.63;;
52414;SDS011;38340;52.964;6.086;2023-08-08T00:29:47;4.35;;;2.70;;
52414;SDS011;38340;52.964;6.086;2023-08-08T00:32:12;5.45;;;3.08;;
52414;SDS011;38340;52.964;6.086;2023-08-08T00:34:38;5.88;;;3.15;;
52414;SDS011;38340;52.964;6.086;2023-08-08T00:37:04;8.45;;;2.90;;
52414;SDS011;38340;52.964;6.086;2023-08-08T00:39:30;7.32;;;4.05;;
52414;SDS011;38340;52.964;6.086;2023-08-08T00:41:55;5.80;;;3.20;;
52414;SDS011;38340;52.964;6.086;2023-08-08T00:44:21;6.40;;;4.00;;
52414;SDS011;38340;52.964;6.086;2023-08-08T00:46:47;4.57;;;3.55;;
52414;SDS011;38340;52.964;6.086;2023-08-08T00:49:12;6.43;;;3.22;;
52414;SDS011;38340;52.964;6.086;2023-08-08T00:51:38;8.45;;;3.50;;
52414;SDS011;38340;52.964;6.086;2023-08-08T00:54:04;5.13;;;3.20;;
52414;SDS011;38340;52.964;6.086;2023-08-08T00:56:30;7.30;;;3.13;;
52414;SDS011;38340;52.964;6.086;2023-08-08T00:58:57;8.10;;;3.72;;
52414;SDS011;38340;52.964;6.086;2023-08-08T01:01:22;4.03;;;3.15;;
52414;SDS011;38340;52.964;6.086;2023-08-08T01:03:48;9.13;;;4.05;;
52414;SDS011;38340;52.964;6.086;2023-08-08T01:08:55;5.00;;;3.17;;
52414;SDS011;38340;52.964;6.086;2023-08-08T01:11:25;6.45;;;3.38;;
52414;SDS011;38340;52.964;6.086;2023-08-08T01:13:54;6.18;;;3.40;;
52414;SDS011;38340;52.964;6.086;2023-08-08T01:16:20;6.18;;;3.45;;
52414;SDS011;38340;52.964;6.086;2023-08-08T01:18:47;6.68;;;3.63;;
52414;SDS011;38340;52.964;6.086;2023-08-08T01:21:14;7.45;;;3.97;;
52414;SDS011;38340;52.964;6.086;2023-08-08T01:23:56;8.65;;;3.60;;
52414;SDS011;38340;52.964;6.086;2023-08-08T01:26:26;8.00;;;4.25;;
52414;SDS011;38340;52.964;6.086;2023-08-08T01:28:53;5.65;;;3.40;;
52414;SDS011;38340;52.964;6.086;2023-08-08T01:31:19;5.35;;;3.20;;
52414;SDS011;38340;52.964;6.086;2023-08-08T01:33:45;14.73;;;4.28;;
52414;SDS011;38340;52.964;6.086;2023-08-08T01:36:13;9.48;;;3.92;;
52414;SDS011;38340;52.964;6.086;2023-08-08T01:38:53;6.20;;;3.20;;
52414;SDS011;38340;52.964;6.086;2023-08-08T01:41:24;8.52;;;3.47;;
52414;SDS011;38340;52.964;6.086;2023-08-08T01:43:51;6.85;;;3.20;;
52414;SDS011;38340;52.964;6.086;2023-08-08T01:46:18;6.65;;;3.28;;
52414;SDS011;38340;52.964;6.086;2023-08-08T01:48:44;9.45;;;3.45;;
52414;SDS011;38340;52.964;6.086;2023-08-08T01:51:11;11.07;;;4.13;;
52414;SDS011;38340;52.964;6.086;2023-08-08T01:53:37;8.48;;;3.28;;
52414;SDS011;38340;52.964;6.086;2023-08-08T01:56:03;7.60;;;3.42;;
52414;SDS011;38340;52.964;6.086;2023-08-08T01:58:29;7.80;;;3.35;;
52414;SDS011;38340;52.964;6.086;2023-08-08T02:00:54;7.90;;;3.30;;
52414;SDS011;38340;52.964;6.086;2023-08-08T02:03:20;9.00;;;3.67;;
52414;SDS011;38340;52.964;6.086;2023-08-08T02:05:45;11.60;;;3.50;;
52414;SDS011;38340;52.964;6.086;2023-08-08T02:08:11;8.00;;;3.20;;
52414;SDS011;38340;52.964;6.086;2023-08-08T02:10:38;9.20;;;3.58;;
52414;SDS011;38340;52.964;6.086;2023-08-08T02:13:03;4.22;;;3.17;;
52414;SDS011;38340;52.964;6.086;2023-08-08T02:15:29;5.85;;;3.17;;
52414;SDS011;38340;52.964;6.086;2023-08-08T02:17:55;6.43;;;3.08;;
52414;SDS011;38340;52.964;6.086;2023-08-08T02:20:21;9.10;;;2.92;;
52414;SDS011;38340;52.964;6.086;2023-08-08T02:22:46;6.25;;;2.83;;
52414;SDS011;38340;52.964;6.086;2023-08-08T02:25:12;6.38;;;2.80;;
52414;SDS011;38340;52.964;6.086;2023-08-08T02:27:38;5.55;;;2.83;;
52414;SDS011;38340;52.964;6.086;2023-08-08T02:30:03;5.00;;;2.72;;
52414;SDS011;38340;52.964;6.086;2023-08-08T02:32:29;5.00;;;2.92;;
52414;SDS011;38340;52.964;6.086;2023-08-08T02:34:55;6.93;;;3.25;;
52414;SDS011;38340;52.964;6.086;2023-08-08T02:37:21;9.40;;;2.95;;
52414;SDS011;38340;52.964;6.086;2023-08-08T02:39:46;5.65;;;2.97;;
52414;SDS011;38340;52.964;6.086;2023-08-08T02:42:12;6.80;;;3.17;;
52414;SDS011;38340;52.964;6.086;2023-08-08T02:44:38;7.47;;;2.95;;
52414;SDS011;38340;52.964;6.086;2023-08-08T02:47:04;8.75;;;3.35;;
52414;SDS011;38340;52.964;6.086;2023-08-08T02:49:29;9.30;;;3.63;;
52414;SDS011;38340;52.964;6.086;2023-08-08T02:51:55;9.02;;;2.85;;
52414;SDS011;38340;52.964;6.086;2023-08-08T02:54:21;7.57;;;2.80;;
52414;SDS011;38340;52.964;6.086;2023-08-08T02:56:46;10.43;;;3.25;;
52414;SDS011;38340;52.964;6.086;2023-08-08T02:59:12;12.60;;;2.90;;
52414;SDS011;38340;52.964;6.086;2023-08-08T03:01:38;7.28;;;2.60;;
52414;SDS011;38340;52.964;6.086;2023-08-08T03:04:05;8.95;;;2.85;;
52414;SDS011;38340;52.964;6.086;2023-08-08T03:06:31;5.88;;;2.67;;
52414;SDS011;38340;52.964;6.086;2023-08-08T03:08:56;9.95;;;3.15;;
52414;SDS011;38340;52.964;6.086;2023-08-08T03:11:22;7.80;;;2.88;;
52414;SDS011;38340;52.964;6.086;2023-08-08T03:13:48;4.45;;;2.50;;
52414;SDS011;38340;52.964;6.086;2023-08-08T03:16:13;9.40;;;2.78;;
52414;SDS011;38340;52.964;6.086;2023-08-08T03:18:39;6.20;;;2.40;;
52414;SDS011;38340;52.964;6.086;2023-08-08T03:21:05;4.72;;;2.58;;
52414;SDS011;38340;52.964;6.086;2023-08-08T03:23:31;7.30;;;2.85;;
52414;SDS011;38340;52.964;6.086;2023-08-08T03:25:57;10.30;;;2.92;;
52414;SDS011;38340;52.964;6.086;2023-08-08T03:28:22;9.77;;;2.30;;
52414;SDS011;38340;52.964;6.086;2023-08-08T03:30:48;8.73;;;2.60;;
52414;SDS011;38340;52.964;6.086;2023-08-08T03:33:14;6.25;;;2.28;;
52414;SDS011;38340;52.964;6.086;2023-08-08T03:35:40;8.45;;;2.90;;
52414;SDS011;38340;52.964;6.086;2023-08-08T03:38:05;3.33;;;2.28;;
52414;SDS011;38340;52.964;6.086;2023-08-08T03:40:32;8.50;;;2.92;;
52414;SDS011;38340;52.964;6.086;2023-08-08T03:42:58;7.10;;;2.90;;
52414;SDS011;38340;52.964;6.086;2023-08-08T03:45:24;8.25;;;2.35;;
52414;SDS011;38340;52.964;6.086;2023-08-08T03:47:49;5.65;;;2.72;;
52414;SDS011;38340;52.964;6.086;2023-08-08T03:50:15;6.78;;;2.75;;
52414;SDS011;38340;52.964;6.086;2023-08-08T03:52:40;8.63;;;3.03;;
52414;SDS011;38340;52.964;6.086;2023-08-08T03:55:06;6.57;;;2.92;;
52414;SDS011;38340;52.964;6.086;2023-08-08T03:57:32;12.27;;;2.67;;
52414;SDS011;38340;52.964;6.086;2023-08-08T03:59:58;7.57;;;2.70;;
52414;SDS011;38340;52.964;6.086;2023-08-08T04:02:24;7.28;;;2.88;;
52414;SDS011;38340;52.964;6.086;2023-08-08T04:04:50;9.63;;;2.40;;
52414;SDS011;38340;52.964;6.086;2023-08-08T04:07:15;6.13;;;2.20;;
52414;SDS011;38340;52.964;6.086;2023-08-08T04:09:42;8.77;;;2.75;;
52414;SDS011;38340;52.964;6.086;2023-08-08T04:12:08;5.32;;;2.45;;
52414;SDS011;38340;52.964;6.086;2023-08-08T04:14:33;7.20;;;2.88;;
52414;SDS011;38340;52.964;6.086;2023-08-08T04:16:59;7.03;;;2.70;;
52414;SDS011;38340;52.964;6.086;2023-08-08T04:19:25;9.68;;;2.70;;
52414;SDS011;38340;52.964;6.086;2023-08-08T04:21:50;11.27;;;2.72;;
52414;SDS011;38340;52.964;6.086;2023-08-08T04:24:16;9.02;;;2.63;;
52414;SDS011;38340;52.964;6.086;2023-08-08T04:26:42;8.55;;;3.00;;
52414;SDS011;38340;52.964;6.086;2023-08-08T04:29:08;6.88;;;2.83;;
52414;SDS011;38340;52.964;6.086;2023-08-08T04:31:33;9.52;;;2.85;;
52414;SDS011;38340;52.964;6.086;2023-08-08T04:33:59;7.03;;;2.53;;
52414;SDS011;38340;52.964;6.086;2023-08-08T04:36:29;5.40;;;2.53;;
52414;SDS011;38340;52.964;6.086;2023-08-08T04:38:55;7.65;;;2.50;;
52414;SDS011;38340;52.964;6.086;2023-08-08T04:41:21;9.38;;;2.47;;
52414;SDS011;38340;52.964;6.086;2023-08-08T04:43:47;8.07;;;2.85;;
52414;SDS011;38340;52.964;6.086;2023-08-08T04:46:12;10.00;;;2.80;;
52414;SDS011;38340;52.964;6.086;2023-08-08T04:48:38;10.23;;;3.25;;
52414;SDS011;38340;52.964;6.086;2023-08-08T04:51:05;7.55;;;2.90;;
52414;SDS011;38340;52.964;6.086;2023-08-08T04:53:31;6.88;;;2.45;;
52414;SDS011;38340;52.964;6.086;2023-08-08T04:55:57;5.85;;;2.47;;
52414;SDS011;38340;52.964;6.086;2023-08-08T04:58:23;5.18;;;2.80;;
52414;SDS011;38340;52.964;6.086;2023-08-08T05:00:49;5.20;;;2.30;;
52414;SDS011;38340;52.964;6.086;2023-08-08T05:03:16;5.57;;;2.00;;
52414;SDS011;38340;52.964;6.086;2023-08-08T05:05:42;5.70;;;2.53;;
52414;SDS011;38340;52.964;6.086;2023-08-08T05:08:10;5.60;;;2.13;;
52414;SDS011;38340;52.964;6.086;2023-08-08T05:10:36;3.83;;;2.00;;
52414;SDS011;38340;52.964;6.086;2023-08-08T05:13:02;6.20;;;2.20;;
52414;SDS011;38340;52.964;6.086;2023-08-08T05:15:28;7.75;;;2.45;;
52414;SDS011;38340;52.964;6.086;2023-08-08T05:17:53;8.40;;;2.20;;
52414;SDS011;38340;52.964;6.086;2023-08-08T05:20:20;7.72;;;2.45;;
52414;SDS011;38340;52.964;6.086;2023-08-08T05:22:47;4.72;;;2.10;;
52414;SDS011;38340;52.964;6.086;2023-08-08T05:25:13;5.75;;;2.00;;
52414;SDS011;38340;52.964;6.086;2023-08-08T05:27:39;7.03;;;2.35;;
52414;SDS011;38340;52.964;6.086;2023-08-08T05:30:05;8.18;;;2.63;;
52414;SDS011;38340;52.964;6.086;2023-08-08T05:32:31;4.85;;;2.30;;
52414;SDS011;38340;52.964;6.086;2023-08-08T05:34:57;4.95;;;2.30;;
52414;SDS011;38340;52.964;6.086;2023-08-08T05:37:23;3.90;;;2.20;;
52414;SDS011;38340;52.964;6.086;2023-08-08T05:39:49;8.02;;;2.28;;
52414;SDS011;38340;52.964;6.086;2023-08-08T05:42:15;5.75;;;2.30;;
52414;SDS011;38340;52.964;6.086;2023-08-08T05:44:41;7.88;;;2.38;;
52414;SDS011;38340;52.964;6.086;2023-08-08T05:47:09;5.07;;;2.40;;
52414;SDS011;38340;52.964;6.086;2023-08-08T05:49:35;13.98;;;2.88;;
52414;SDS011;38340;52.964;6.086;2023-08-08T05:52:01;10.30;;;2.40;;
52414;SDS011;38340;52.964;6.086;2023-08-08T05:54:27;4.80;;;1.90;;
52414;SDS011;38340;52.964;6.086;2023-08-08T05:56:53;6.10;;;2.30;;
52414;SDS011;38340;52.964;6.086;2023-08-08T05:59:19;5.30;;;2.17;;
52414;SDS011;38340;52.964;6.086;2023-08-08T06:01:45;5.07;;;2.00;;
52414;SDS011;38340;52.964;6.086;2023-08-08T06:04:11;7.80;;;2.72;;
52414;SDS011;38340;52.964;6.086;2023-08-08T06:06:37;14.05;;;2.72;;
52414;SDS011;38340;52.964;6.086;2023-08-08T06:09:03;6.18;;;2.55;;
52414;SDS011;38340;52.964;6.086;2023-08-08T06:11:29;7.18;;;2.33;;
52414;SDS011;38340;52.964;6.086;2023-08-08T06:13:55;8.05;;;2.63;;
52414;SDS011;38340;52.964;6.086;2023-08-08T06:16:21;4.22;;;2.03;;
52414;SDS011;38340;52.964;6.086;2023-08-08T06:18:46;7.07;;;2.33;;
52414;SDS011;38340;52.964;6.086;2023-08-08T06:21:12;7.30;;;2.17;;
52414;SDS011;38340;52.964;6.086;2023-08-08T06:23:38;7.07;;;1.95;;
52414;SDS011;38340;52.964;6.086;2023-08-08T06:26:04;7.63;;;2.42;;
52414;SDS011;38340;52.964;6.086;2023-08-08T06:28:30;5.43;;;2.60;;
52414;SDS011;38340;52.964;6.086;2023-08-08T06:30:59;4.93;;;2.17;;
52414;SDS011;38340;52.964;6.086;2023-08-08T06:33:25;6.22;;;2.28;;
52414;SDS011;38340;52.964;6.086;2023-08-08T06:35:50;6.90;;;2.70;;
52414;SDS011;38340;52.964;6.086;2023-08-08T06:38:16;9.32;;;2.00;;
52414;SDS011;38340;52.964;6.086;2023-08-08T06:40:42;8.52;;;2.45;;
52414;SDS011;38340;52.964;6.086;2023-08-08T06:43:08;4.95;;;2.08;;
52414;SDS011;38340;52.964;6.086;2023-08-08T06:45:34;5.97;;;2.00;;
52414;SDS011;38340;52.964;6.086;2023-08-08T06:48:00;10.48;;;2.55;;
52414;SDS011;38340;52.964;6.086;2023-08-08T06:50:26;14.68;;;2.40;;
52414;SDS011;38340;52.964;6.086;2023-08-08T06:52:51;4.43;;;1.90;;
52414;SDS011;38340;52.964;6.086;2023-08-08T06:55:17;6.75;;;2.38;;
52414;SDS011;38340;52.964;6.086;2023-08-08T06:57:43;4.97;;;2.05;;
52414;SDS011;38340;52.964;6.086;2023-08-08T07:00:09;4.03;;;1.90;;
52414;SDS011;38340;52.964;6.086;2023-08-08T07:02:38;8.68;;;2.20;;
52414;SDS011;38340;52.964;6.086;2023-08-08T07:05:04;5.13;;;1.95;;
52414;SDS011;38340;52.964;6.086;2023-08-08T07:07:31;6.15;;;1.95;;
52414;SDS011;38340;52.964;6.086;2023-08-08T07:09:58;4.65;;;2.05;;
52414;SDS011;38340;52.964;6.086;2023-08-08T07:12:24;4.38;;;1.90;;
52414;SDS011;38340;52.964;6.086;2023-08-08T07:14:50;9.68;;;2.40;;
52414;SDS011;38340;52.964;6.086;2023-08-08T07:17:15;8.05;;;2.83;;
52414;SDS011;38340;52.964;6.086;2023-08-08T07:19:41;10.90;;;2.90;;
52414;SDS011;38340;52.964;6.086;2023-08-08T07:22:07;5.05;;;2.00;;
52414;SDS011;38340;52.964;6.086;2023-08-08T07:24:33;5.22;;;2.22;;
52414;SDS011;38340;52.964;6.086;2023-08-08T07:26:59;8.48;;;2.22;;
52414;SDS011;38340;52.964;6.086;2023-08-08T07:29:25;3.95;;;2.03;;
52414;SDS011;38340;52.964;6.086;2023-08-08T07:31:52;4.53;;;2.05;;
52414;SDS011;38340;52.964;6.086;2023-08-08T07:34:18;8.70;;;1.70;;
52414;SDS011;38340;52.964;6.086;2023-08-08T07:36:44;5.72;;;2.05;;
52414;SDS011;38340;52.964;6.086;2023-08-08T07:39:10;6.93;;;1.80;;
52414;SDS011;38340;52.964;6.086;2023-08-08T07:41:36;8.40;;;2.10;;
52414;SDS011;38340;52.964;6.086;2023-08-08T07:44:02;7.95;;;2.25;;
52414;SDS011;38340;52.964;6.086;2023-08-08T07:46:28;6.07;;;2.00;;
52414;SDS011;38340;52.964;6.086;2023-08-08T07:48:54;5.90;;;2.20;;
52414;SDS011;38340;52.964;6.086;2023-08-08T07:51:20;5.30;;;2.28;;
52414;SDS011;38340;52.964;6.086;2023-08-08T07:53:46;4.63;;;2.08;;
52414;SDS011;38340;52.964;6.086;2023-08-08T07:56:12;6.50;;;2.40;;
52414;SDS011;38340;52.964;6.086;2023-08-08T07:58:38;8.07;;;2.08;;
52414;SDS011;38340;52.964;6.086;2023-08-08T08:01:04;6.80;;;2.20;;
52414;SDS011;38340;52.964;6.086;2023-08-08T08:03:30;6.40;;;2.40;;
52414;SDS011;38340;52.964;6.086;2023-08-08T08:05:56;6.82;;;2.00;;
52414;SDS011;38340;52.964;6.086;2023-08-08T08:08:22;6.90;;;2.22;;
52414;SDS011;38340;52.964;6.086;2023-08-08T08:10:49;4.70;;;2.03;;
52414;SDS011;38340;52.964;6.086;2023-08-08T08:13:16;7.53;;;2.63;;
52414;SDS011;38340;52.964;6.086;2023-08-08T08:15:42;7.50;;;2.25;;
52414;SDS011;38340;52.964;6.086;2023-08-08T08:18:08;3.25;;;2.10;;
52414;SDS011;38340;52.964;6.086;2023-08-08T08:20:34;6.97;;;2.15;;
52414;SDS011;38340;52.964;6.086;2023-08-08T08:23:00;6.38;;;2.50;;
52414;SDS011;38340;52.964;6.086;2023-08-08T08:25:25;8.57;;;2.97;;
52414;SDS011;38340;52.964;6.086;2023-08-08T08:27:51;6.25;;;2.28;;
52414;SDS011;38340;52.964;6.086;2023-08-08T08:30:17;6.05;;;2.47;;
52414;SDS011;38340;52.964;6.086;2023-08-08T08:32:43;4.78;;;2.03;;
52414;SDS011;38340;52.964;6.086;2023-08-08T08:35:09;7.65;;;2.10;;
52414;SDS011;38340;52.964;6.086;2023-08-08T08:37:37;4.97;;;2.10;;
52414;SDS011;38340;52.964;6.086;2023-08-08T08:40:03;5.85;;;2.85;;
52414;SDS011;38340;52.964;6.086;2023-08-08T08:42:32;6.40;;;2.42;;
52414;SDS011;38340;52.964;6.086;2023-08-08T08:44:58;5.13;;;2.40;;
52414;SDS011;38340;52.964;6.086;2023-08-08T08:47:26;10.00;;;2.50;;
52414;SDS011;38340;52.964;6.086;2023-08-08T08:49:56;7.32;;;2.30;;
52414;SDS011;38340;52.964;6.086;2023-08-08T08:52:22;6.90;;;2.30;;
52414;SDS011;38340;52.964;6.086;2023-08-08T08:54:50;8.90;;;2.25;;
52414;SDS011;38340;52.964;6.086;2023-08-08T08:57:16;9.00;;;2.65;;
52414;SDS011;38340;52.964;6.086;2023-08-08T08:59:42;6.95;;;2.60;;
52414;SDS011;38340;52.964;6.086;2023-08-08T09:02:09;6.78;;;2.70;;
52414;SDS011;38340;52.964;6.086;2023-08-08T09:04:36;7.93;;;2.80;;
52414;SDS011;38340;52.964;6.086;2023-08-08T09:07:02;6.63;;;2.30;;
52414;SDS011;38340;52.964;6.086;2023-08-08T09:09:31;6.70;;;2.45;;
52414;SDS011;38340;52.964;6.086;2023-08-08T09:11:58;6.68;;;2.17;;
52414;SDS011;38340;52.964;6.086;2023-08-08T09:14:25;5.88;;;2.10;;
52414;SDS011;38340;52.964;6.086;2023-08-08T09:16:52;6.50;;;2.08;;
52414;SDS011;38340;52.964;6.086;2023-08-08T09:19:19;4.38;;;2.10;;
52414;SDS011;38340;52.964;6.086;2023-08-08T09:21:46;6.82;;;1.90;;
52414;SDS011;38340;52.964;6.086;2023-08-08T09:24:12;4.25;;;2.03;;
52414;SDS011;38340;52.964;6.086;2023-08-08T09:26:39;5.90;;;2.17;;
52414;SDS011;38340;52.964;6.086;2023-08-08T09:29:05;7.43;;;2.17;;
52414;SDS011;38340;52.964;6.086;2023-08-08T09:31:31;7.75;;;2.72;;
52414;SDS011;38340;52.964;6.086;2023-08-08T09:33:59;5.32;;;2.42;;
52414;SDS011;38340;52.964;6.086;2023-08-08T09:36:26;4.05;;;1.92;;
52414;SDS011;38340;52.964;6.086;2023-08-08T09:38:52;4.90;;;1.90;;
52414;SDS011;38340;52.964;6.086;2023-08-08T09:41:20;4.07;;;2.17;;
52414;SDS011;38340;52.964;6.086;2023-08-08T09:43:50;3.88;;;2.20;;
52414;SDS011;38340;52.964;6.086;2023-08-08T09:46:18;3.22;;;2.00;;
52414;SDS011;38340;52.964;6.086;2023-08-08T09:48:45;5.95;;;1.80;;
52414;SDS011;38340;52.964;6.086;2023-08-08T09:51:11;7.10;;;2.35;;
52414;SDS011;38340;52.964;6.086;2023-08-08T09:53:37;6.90;;;2.70;;
52414;SDS011;38340;52.964;6.086;2023-08-08T09:56:04;5.75;;;2.10;;
52414;SDS011;38340;52.964;6.086;2023-08-08T09:58:31;5.25;;;2.22;;
52414;SDS011;38340;52.964;6.086;2023-08-08T10:00:57;7.57;;;2.75;;
52414;SDS011;38340;52.964;6.086;2023-08-08T10:03:23;6.60;;;2.35;;
52414;SDS011;38340;52.964;6.086;2023-08-08T10:05:50;4.10;;;2.00;;
52414;SDS011;38340;52.964;6.086;2023-08-08T10:08:15;4.43;;;2.42;;
52414;SDS011;38340;52.964;6.086;2023-08-08T10:10:46;4.15;;;2.10;;
52414;SDS011;38340;52.964;6.086;2023-08-08T10:13:22;3.63;;;1.90;;
52414;SDS011;38340;52.964;6.086;2023-08-08T10:15:49;4.78;;;2.15;;
52414;SDS011;38340;52.964;6.086;2023-08-08T10:18:16;5.53;;;2.40;;
52414;SDS011;38340;52.964;6.086;2023-08-08T10:20:43;6.60;;;2.30;;
52414;SDS011;38340;52.964;6.086;2023-08-08T10:23:10;5.10;;;2.13;;
52414;SDS011;38340;52.964;6.086;2023-08-08T10:25:36;5.38;;;2.30;;
52414;SDS011;38340;52.964;6.086;2023-08-08T10:28:11;7.57;;;2.72;;
52414;SDS011;38340;52.964;6.086;2023-08-08T10:33:16;7.28;;;2.28;;
52414;SDS011;38340;52.964;6.086;2023-08-08T10:35:50;6.70;;;2.60;;
52414;SDS011;38340;52.964;6.086;2023-08-08T10:38:25;6.07;;;2.60;;
52414;SDS011;38340;52.964;6.086;2023-08-08T10:41:02;5.57;;;2.33;;
52414;SDS011;38340;52.964;6.086;2023-08-08T10:43:28;5.28;;;2.13;;
52414;SDS011;38340;52.964;6.086;2023-08-08T10:46:01;6.07;;;2.40;;
52414;SDS011;38340;52.964;6.086;2023-08-08T10:48:28;7.60;;;2.20;;
52414;SDS011;38340;52.964;6.086;2023-08-08T10:51:00;5.28;;;2.20;;
52414;SDS011;38340;52.964;6.086;2023-08-08T10:53:29;7.28;;;2.40;;
52414;SDS011;38340;52.964;6.086;2023-08-08T10:56:01;5.50;;;2.03;;
52414;SDS011;38340;52.964;6.086;2023-08-08T10:58:38;4.55;;;2.25;;
52414;SDS011;38340;52.964;6.086;2023-08-08T11:01:05;5.78;;;2.10;;
52414;SDS011;38340;52.964;6.086;2023-08-08T11:03:34;6.93;;;2.88;;
52414;SDS011;38340;52.964;6.086;2023-08-08T11:06:05;4.35;;;2.00;;
52414;SDS011;38340;52.964;6.086;2023-08-08T11:08:33;4.80;;;2.20;;
52414;SDS011;38340;52.964;6.086;2023-08-08T11:11:01;4.47;;;2.03;;
52414;SDS011;38340;52.964;6.086;2023-08-08T11:13:28;4.07;;;1.83;;
52414;SDS011;38340;52.964;6.086;2023-08-08T11:15:54;6.47;;;2.17;;
52414;SDS011;38340;52.964;6.086;2023-08-08T11:18:20;8.82;;;2.45;;
52414;SDS011;38340;52.964;6.086;2023-08-08T11:20:47;6.75;;;2.30;;
52414;SDS011;38340;52.964;6.086;2023-08-08T11:23:13;6.35;;;2.20;;
52414;SDS011;38340;52.964;6.086;2023-08-08T11:25:42;5.75;;;1.88;;
52414;SDS011;38340;52.964;6.086;2023-08-08T11:28:09;5.53;;;2.13;;
52414;SDS011;38340;52.964;6.086;2023-08-08T11:30:37;5.43;;;2.47;;
52414;SDS011;38340;52.964;6.086;2023-08-08T11:33:06;6.18;;;2.40;;
52414;SDS011;38340;52.964;6.086;2023-08-08T11:35:32;4.85;;;2.47;;
52414;SDS011;38340;52.964;6.086;2023-08-08T11:37:59;7.85;;;3.30;;
52414;SDS011;38340;52.964;6.086;2023-08-08T11:40:28;4.97;;;2.20;;
52414;SDS011;38340;52.964;6.086;2023-08-08T11:42:55;11.65;;;2.70;;
52414;SDS011;38340;52.964;6.086;2023-08-08T11:45:24;6.05;;;2.60;;
52414;SDS011;38340;52.964;6.086;2023-08-08T11:47:50;7.43;;;2.25;;
52414;SDS011;38340;52.964;6.086;2023-08-08T11:50:19;9.45;;;2.88;;
52414;SDS011;38340;52.964;6.086;2023-08-08T11:52:45;6.40;;;2.63;;
52414;SDS011;38340;52.964;6.086;2023-08-08T11:55:12;8.20;;;1.98;;
52414;SDS011;38340;52.964;6.086;2023-08-08T11:57:41;6.63;;;2.45;;
52414;SDS011;38340;52.964;6.086;2023-08-08T12:00:07;3.85;;;2.17;;
52414;SDS011;38340;52.964;6.086;2023-08-08T12:02:34;5.32;;;2.03;;
52414;SDS011;38340;52.964;6.086;2023-08-08T12:05:07;3.72;;;1.77;;
52414;SDS011;38340;52.964;6.086;2023-08-08T12:07:35;4.78;;;2.75;;
52414;SDS011;38340;52.964;6.086;2023-08-08T12:10:04;7.07;;;2.92;;
52414;SDS011;38340;52.964;6.086;2023-08-08T12:12:31;9.95;;;2.55;;
52414;SDS011;38340;52.964;6.086;2023-08-08T12:15:06;3.97;;;2.25;;
52414;SDS011;38340;52.964;6.086;2023-08-08T12:17:33;4.55;;;2.13;;
52414;SDS011;38340;52.964;6.086;2023-08-08T12:20:03;6.53;;;2.20;;
52414;SDS011;38340;52.964;6.086;2023-08-08T12:22:33;6.18;;;2.10;;
52414;SDS011;38340;52.964;6.086;2023-08-08T12:24:59;7.32;;;2.22;;
52414;SDS011;38340;52.964;6.086;2023-08-08T12:27:26;7.05;;;2.10;;
52414;SDS011;38340;52.964;6.086;2023-08-08T12:29:51;5.28;;;2.40;;
52414;SDS011;38340;52.964;6.086;2023-08-08T12:32:20;5.05;;;2.25;;
52414;SDS011;38340;52.964;6.086;2023-08-08T12:34:49;6.38;;;2.35;;
52414;SDS011;38340;52.964;6.086;2023-08-08T12:37:15;7.75;;;2.40;;
52414;SDS011;38340;52.964;6.086;2023-08-08T12:39:41;4.50;;;2.30;;
52414;SDS011;38340;52.964;6.086;2023-08-08T12:42:07;11.68;;;2.47;;
52414;SDS011;38340;52.964;6.086;2023-08-08T12:44:32;5.15;;;2.10;;
52414;SDS011;38340;52.964;6.086;2023-08-08T12:46:58;4.63;;;2.25;;
52414;SDS011;38340;52.964;6.086;2023-08-08T12:49:24;4.50;;;2.22;;
52414;SDS011;38340;52.964;6.086;2023-08-08T12:51:50;5.30;;;1.95;;
52414;SDS011;38340;52.964;6.086;2023-08-08T12:54:17;7.80;;;2.65;;
52414;SDS011;38340;52.964;6.086;2023-08-08T12:56:42;4.85;;;2.45;;
52414;SDS011;38340;52.964;6.086;2023-08-08T12:59:09;4.75;;;2.00;;
52414;SDS011;38340;52.964;6.086;2023-08-08T13:01:34;4.07;;;1.90;;
52414;SDS011;38340;52.964;6.086;2023-08-08T13:04:00;6.13;;;2.10;;
52414;SDS011;38340;52.964;6.086;2023-08-08T13:06:26;4.15;;;1.98;;
52414;SDS011;38340;52.964;6.086;2023-08-08T13:08:52;10.07;;;2.50;;
52414;SDS011;38340;52.964;6.086;2023-08-08T13:11:18;7.25;;;2.00;;
52414;SDS011;38340;52.964;6.086;2023-08-08T13:13:43;7.13;;;2.35;;
52414;SDS011;38340;52.964;6.086;2023-08-08T13:16:09;3.55;;;1.77;;
52414;SDS011;38340;52.964;6.086;2023-08-08T13:18:35;5.40;;;2.17;;
52414;SDS011;38340;52.964;6.086;2023-08-08T13:21:01;8.48;;;2.00;;
52414;SDS011;38340;52.964;6.086;2023-08-08T13:23:27;6.82;;;1.75;;
52414;SDS011;38340;52.964;6.086;2023-08-08T13:25:53;4.85;;;2.13;;
52414;SDS011;38340;52.964;6.086;2023-08-08T13:28:19;7.32;;;2.15;;
52414;SDS011;38340;52.964;6.086;2023-08-08T13:30:45;5.70;;;2.20;;
52414;SDS011;38340;52.964;6.086;2023-08-08T13:33:11;5.22;;;2.05;;
52414;SDS011;38340;52.964;6.086;2023-08-08T13:35:37;5.90;;;2.17;;
52414;SDS011;38340;52.964;6.086;2023-08-08T13:38:02;10.95;;;2.58;;
52414;SDS011;38340;52.964;6.086;2023-08-08T13:40:28;5.35;;;2.13;;
52414;SDS011;38340;52.964;6.086;2023-08-08T13:42:54;5.07;;;2.00;;
52414;SDS011;38340;52.964;6.086;2023-08-08T13:45:19;5.47;;;2.33;;
52414;SDS011;38340;52.964;6.086;2023-08-08T13:47:46;4.03;;;2.13;;
52414;SDS011;38340;52.964;6.086;2023-08-08T13:50:13;6.30;;;2.55;;
52414;SDS011;38340;52.964;6.086;2023-08-08T13:52:39;6.47;;;2.40;;
52414;SDS011;38340;52.964;6.086;2023-08-08T13:55:06;6.78;;;2.22;;
52414;SDS011;38340;52.964;6.086;2023-08-08T13:57:32;8.65;;;2.08;;
52414;SDS011;38340;52.964;6.086;2023-08-08T13:59:58;4.32;;;2.00;;
52414;SDS011;38340;52.964;6.086;2023-08-08T14:02:24;7.63;;;2.25;;
52414;SDS011;38340;52.964;6.086;2023-08-08T14:04:49;5.03;;;2.38;;
52414;SDS011;38340;52.964;6.086;2023-08-08T14:07:15;5.93;;;1.95;;
52414;SDS011;38340;52.964;6.086;2023-08-08T14:09:41;7.50;;;2.15;;
52414;SDS011;38340;52.964;6.086;2023-08-08T14:12:07;4.28;;;2.00;;
52414;SDS011;38340;52.964;6.086;2023-08-08T14:14:33;6.18;;;2.33;;
52414;SDS011;38340;52.964;6.086;2023-08-08T14:16:58;6.18;;;2.17;;
52414;SDS011;38340;52.964;6.086;2023-08-08T14:19:24;4.90;;;2.00;;
52414;SDS011;38340;52.964;6.086;2023-08-08T14:21:50;4.15;;;1.80;;
52414;SDS011;38340;52.964;6.086;2023-08-08T14:24:15;4.43;;;1.80;;
52414;SDS011;38340;52.964;6.086;2023-08-08T14:26:41;5.20;;;2.40;;
52414;SDS011;38340;52.964;6.086;2023-08-08T14:29:07;5.32;;;2.42;;
52414;SDS011;38340;52.964;6.086;2023-08-08T14:31:33;4.68;;;2.03;;
52414;SDS011;38340;52.964;6.086;2023-08-08T14:33:58;6.20;;;2.45;;
52414;SDS011;38340;52.964;6.086;2023-08-08T14:36:24;7.55;;;2.45;;
52414;SDS011;38340;52.964;6.086;2023-08-08T14:38:50;5.72;;;2.40;;
52414;SDS011;38340;52.964;6.086;2023-08-08T14:41:15;7.60;;;2.53;;
52414;SDS011;38340;52.964;6.086;2023-08-08T14:43:41;7.40;;;2.70;;
52414;SDS011;38340;52.964;6.086;2023-08-08T14:46:07;6.80;;;2.00;;
52414;SDS011;38340;52.964;6.086;2023-08-08T14:48:32;3.35;;;1.83;;